Time;durP1;ratioP1;P1;durP2;ratioP2;P2;SDS_P1;SDS_P2;PMS_P1;PMS_P2;Temp;Humidity;BMP_temperature;BMP_pressure;BME280_temperature;BME280_humidity;BME280_pressure;Samples;Min_cycle;Max_cycle;Signal;HPM_P1;HPM_P2
2022/04/22 00:00:24;;;;;;;;;;;;;;;9.76;79.53;95061.28;5135835;27;1854;-49
2022/04/22 00:02:51;;;;;;;;;;;;;;;9.78;79.97;95046.78;5136016;27;1914;-49
2022/04/22 00:05:17;;;;;;;;;;;;;;;9.77;80.41;95060.31;5136273;27;977;-49
2022/04/22 00:07:43;;;;;;;;;;;;;;;9.77;80.23;95047.78;5135678;27;1004;-49
2022/04/22 00:10:10;;;;;;;;;;;;;;;9.75;80.24;95055.13;5135753;27;1031;-49
2022/04/22 00:12:37;;;;;;;;;;;;;;;9.71;80.67;95061.78;5135942;27;1062;-49
2022/04/22 00:15:03;;;;;;;;;;;;;;;9.70;80.72;95064.59;5135789;27;944;-49
2022/04/22 00:17:29;;;;;;;;;;;;;;;9.67;80.91;95048.88;5135421;27;1976;-49
2022/04/22 00:19:55;;;;;;;;;;;;;;;9.63;81.19;95020.84;5135562;27;1074;-49
2022/04/22 00:22:21;;;;;;;;;;;;;;;9.55;81.37;94976.25;5135540;27;1044;-49
2022/04/22 00:24:47;;;;;;;;;;;;;;;9.50;81.31;94981.22;5135211;27;1048;-49
2022/04/22 00:27:13;;;;;;;;;;;;;;;9.62;80.46;94981.78;5135295;27;1024;-49
2022/04/22 00:29:39;;;;;;;;;;;;;;;9.69;79.87;95001.50;5135704;27;976;-49
2022/04/22 00:32:06;;;;;;;;;;;;;;;9.74;79.96;95004.53;5135360;27;1027;-49
2022/04/22 00:34:32;;;;;;;;;;;;;;;9.77;80.46;95001.56;5134640;27;1230;-49
2022/04/22 00:36:57;;;;;;;;;;;;;;;9.78;80.30;94992.53;5135458;27;1007;-49
2022/04/22 00:39:24;;;;;;;;;;;;;;;9.84;79.60;94986.56;5134980;27;1027;-48
2022/04/22 00:41:50;;;;;;;;;;;;;;;9.80;79.75;94987.03;5135321;27;1030;-48
2022/04/22 00:44:16;;;;;;;;;;;;;;;9.71;80.31;94986.16;5134895;27;1986;-48
2022/04/22 00:46:42;;;;;;;;;;;;;;;9.63;80.35;94986.13;5135297;27;968;-49
2022/04/22 00:49:07;;;;;;;;;;;;;;;9.66;80.46;94978.66;5134901;27;1123;-49
2022/04/22 00:51:33;;;;;;;;;;;;;;;9.65;80.34;94962.78;5135440;27;980;-49
2022/04/22 00:54:01;;;;;;;;;;;;;;;9.58;80.25;94971.44;5134603;27;1019;-49
2022/04/22 00:56:28;;;;;;;;;;;;;;;9.61;80.29;94969.44;5135102;27;999;-49
2022/04/22 00:58:56;;;;;;;;;;;;;;;9.71;79.83;94964.81;5134729;27;1035;-49
2022/04/22 01:01:22;;;;;;;;;;;;;;;9.81;79.37;94978.88;5135020;27;1016;-49
2022/04/22 01:12:05;;;;;;;;;;;;;;;9.75;79.61;94991.03;5134655;27;1090;-49
2022/04/22 01:14:32;;;;;;;;;;;;;;;9.65;79.84;94981.47;5134579;27;999;-49
2022/04/22 01:17:00;;;;;;;;;;;;;;;9.64;79.44;94979.81;5134844;27;979;-49
2022/04/22 01:19:26;;;;;;;;;;;;;;;9.48;80.03;94973.38;5134790;27;952;-49
2022/04/22 01:21:52;;;;;;;;;;;;;;;9.52;80.04;94981.88;5134688;27;980;-49
2022/04/22 01:24:18;;;;;;;;;;;;;;;9.51;80.22;94973.06;5134529;27;1992;-49
2022/04/22 01:26:45;;;;;;;;;;;;;;;9.46;80.92;94975.34;5134565;28;1059;-49
2022/04/22 01:29:13;;;;;;;;;;;;;;;9.47;81.00;94966.38;5134738;28;983;-49
2022/04/22 01:31:41;;;;;;;;;;;;;;;9.52;81.17;94980.09;5134358;28;983;-49
2022/04/22 01:34:07;;;;;;;;;;;;;;;9.54;81.08;94980.75;5134596;28;1043;-49
2022/04/22 01:36:33;;;;;;;;;;;;;;;9.49;81.18;94977.72;5134235;28;1265;-49
2022/04/22 01:38:59;;;;;;;;;;;;;;;9.49;81.26;94964.38;5134513;28;968;-49
2022/04/22 01:41:27;;;;;;;;;;;;;;;9.44;81.71;94958.66;5134471;28;1031;-49
2022/04/22 01:43:53;;;;;;;;;;;;;;;9.52;81.09;94949.88;5134295;28;1906;-49
2022/04/22 01:46:20;;;;;;;;;;;;;;;9.57;80.93;94951.06;5136088;27;1046;-49
2022/04/22 01:48:46;;;;;;;;;;;;;;;9.65;80.64;94946.75;5138356;27;1008;-49
2022/04/22 01:51:12;;;;;;;;;;;;;;;9.65;80.54;94944.91;5138592;27;976;-49
2022/04/22 01:53:38;;;;;;;;;;;;;;;9.55;81.08;94942.38;5138537;27;960;-49
2022/04/22 01:56:04;;;;;;;;;;;;;;;9.57;81.12;94945.72;5138595;27;1019;-49
2022/04/22 01:58:30;;;;;;;;;;;;;;;9.61;80.97;94959.59;5138783;27;1051;-49
2022/04/22 02:00:56;;;;;;;;;;;;;;;9.63;80.99;94964.78;5138163;27;976;-49
2022/04/22 02:03:22;;;;;;;;;;;;;;;9.60;81.15;94959.75;5138298;27;1909;-49
2022/04/22 02:05:48;;;;;;;;;;;;;;;9.57;81.44;94942.22;5138468;27;1035;-49
2022/04/22 02:08:14;;;;;;;;;;;;;;;9.57;81.32;94929.72;5138232;27;929;-49
2022/04/22 02:10:43;;;;;;;;;;;;;;;9.65;80.51;94928.06;5138270;27;973;-49
2022/04/22 02:13:09;;;;;;;;;;;;;;;9.73;80.22;94941.44;5137893;27;1052;-49
2022/04/22 02:15:36;;;;;;;;;;;;;;;9.74;79.92;94935.94;5137926;27;980;-49
2022/04/22 02:18:03;;;;;;;;;;;;;;;9.77;79.90;94937.47;5137836;27;1981;-49
2022/04/22 02:20:29;;;;;;;;;;;;;;;9.72;79.77;94940.63;5137996;27;952;-49
2022/04/22 02:22:55;;;;;;;;;;;;;;;9.57;80.61;94927.03;5137562;27;1994;-49
2022/04/22 02:25:21;;;;;;;;;;;;;;;9.41;80.72;94921.66;5137979;27;1039;-49
2022/04/22 02:30:31;;;;;;;;;;;;;;;9.15;81.48;94922.50;5137644;27;968;-49
2022/04/22 02:32:57;;;;;;;;;;;;;;;9.05;82.16;94920.94;5137561;27;1090;-49
2022/04/22 02:35:23;;;;;;;;;;;;;;;9.12;81.69;94920.13;5136300;27;1316;-49
2022/04/22 02:37:50;;;;;;;;;;;;;;;9.23;81.74;94920.88;5137370;27;1004;-49
2022/04/22 02:45:26;;;;;;;;;;;;;;;9.27;81.56;94928.41;5137551;27;1031;-49
2022/04/22 02:45:50;;;;;;;;;;;;;;;9.32;81.92;94918.09;5137522;27;1028;-49
2022/04/22 02:48:16;;;;;;;;;;;;;;;9.22;81.57;94921.88;5137320;27;1079;-49
2022/04/22 02:50:42;;;;;;;;;;;;;;;9.13;81.52;94929.00;5137355;27;1031;-49
2022/04/22 02:53:08;;;;;;;;;;;;;;;9.12;82.40;94933.47;5137150;27;988;-49
2022/04/22 02:55:36;;;;;;;;;;;;;;;9.13;82.02;94937.00;5137119;27;956;-49
2022/04/22 02:58:02;;;;;;;;;;;;;;;9.12;82.27;94945.97;5136596;27;1000;-49
2022/04/22 03:00:28;;;;;;;;;;;;;;;9.13;81.89;94959.16;5137360;27;995;-49
2022/04/22 03:02:55;;;;;;;;;;;;;;;9.07;82.40;94962.47;5137279;27;1910;-49
2022/04/22 03:05:21;;;;;;;;;;;;;;;9.09;82.20;94962.31;5137271;27;1016;-49
2022/04/22 03:07:47;;;;;;;;;;;;;;;9.18;81.50;94951.53;5136929;27;1124;-49
2022/04/22 03:10:13;;;;;;;;;;;;;;;9.24;81.85;94957.22;5136809;27;1841;-49
2022/04/22 03:12:42;;;;;;;;;;;;;;;9.27;81.87;94960.41;5137154;27;1103;-49
2022/04/22 03:15:08;;;;;;;;;;;;;;;9.23;81.80;94953.72;5136758;27;1028;-49
2022/04/22 03:17:34;;;;;;;;;;;;;;;9.18;82.10;94945.34;5137033;27;1020;-49
2022/04/22 03:20:00;;;;;;;;;;;;;;;9.22;82.21;94945.88;5136789;27;969;-49
2022/04/22 03:22:26;;;;;;;;;;;;;;;9.24;82.04;94941.22;5136570;27;968;-48
2022/04/22 03:24:52;;;;;;;;;;;;;;;9.23;82.14;94937.72;5136492;27;1971;-48
2022/04/22 03:27:18;;;;;;;;;;;;;;;9.13;82.61;94942.34;5136835;27;995;-49
2022/04/22 03:29:44;;;;;;;;;;;;;;;9.03;83.36;94931.78;5136663;27;964;-49
2022/04/22 03:32:14;;;;;;;;;;;;;;;9.05;83.68;94944.94;5136467;27;1301;-49
2022/04/22 03:34:40;;;;;;;;;;;;;;;8.97;83.06;94935.03;5136329;27;1245;-49
2022/04/22 03:37:06;;;;;;;;;;;;;;;8.78;83.97;94936.06;5136245;27;2033;-48
2022/04/22 03:39:32;;;;;;;;;;;;;;;8.73;84.78;94947.22;5136485;27;1027;-49
2022/04/22 03:41:58;;;;;;;;;;;;;;;8.77;85.08;94948.56;5136235;27;1932;-49
2022/04/22 03:44:25;;;;;;;;;;;;;;;8.90;84.55;94947.34;5136441;27;1980;-49
2022/04/22 03:46:51;;;;;;;;;;;;;;;8.97;84.45;94940.38;5136393;27;979;-50
2022/04/22 03:49:17;;;;;;;;;;;;;;;9.07;84.11;94946.47;5136348;27;1026;-50
2022/04/22 03:51:44;;;;;;;;;;;;;;;9.20;83.56;94940.72;5135917;27;1130;-50
2022/04/22 03:54:10;;;;;;;;;;;;;;;9.27;83.11;94946.25;5136223;27;1063;-51
2022/04/22 03:59:20;;;;;;;;;;;;;;;9.43;82.80;94948.16;5135955;27;1098;-50
2022/04/22 04:01:46;;;;;;;;;;;;;;;9.43;83.05;94950.81;5136139;27;1019;-50
2022/04/22 04:04:12;;;;;;;;;;;;;;;9.37;83.17;94942.47;5135730;27;1984;-50
2022/04/22 04:06:38;;;;;;;;;;;;;;;9.38;83.51;94940.63;5135579;27;1016;-50
2022/04/22 04:17:18;;;;;;;;;;;;;;;9.54;82.47;94940.72;5135494;27;1056;-49
2022/04/22 04:25:13;;;;;;;;;;;;;;;9.33;83.41;94924.25;5135618;27;1063;-50
2022/04/22 04:27:39;;;;;;;;;;;;;;;9.38;83.44;94938.78;5135604;27;972;-50
2022/04/22 04:30:06;;;;;;;;;;;;;;;9.33;84.37;94941.13;5135268;27;1044;-51
2022/04/22 04:32:32;;;;;;;;;;;;;;;9.23;84.99;94943.03;5135163;27;1037;-51
2022/04/22 04:34:58;;;;;;;;;;;;;;;9.27;84.72;94936.41;5135176;27;1304;-51
2022/04/22 04:37:24;;;;;;;;;;;;;;;9.40;84.34;94941.31;5135325;27;1063;-50
2022/04/22 04:39:50;;;;;;;;;;;;;;;9.51;83.57;94946.38;5135084;27;1027;-51
2022/04/22 04:42:16;;;;;;;;;;;;;;;9.53;84.12;94940.88;5135231;27;1039;-51
2022/04/22 04:44:42;;;;;;;;;;;;;;;9.48;84.34;94933.34;5135196;27;1906;-52
2022/04/22 04:47:08;;;;;;;;;;;;;;;9.40;84.57;94927.13;5135240;27;1201;-52
2022/04/22 04:49:34;;;;;;;;;;;;;;;9.32;84.78;94920.75;5135025;27;1026;-52
2022/04/22 04:52:00;;;;;;;;;;;;;;;9.34;84.88;94915.28;5135067;27;964;-52
2022/04/22 04:54:26;;;;;;;;;;;;;;;9.31;85.41;94899.56;5135068;27;952;-51
2022/04/22 04:56:52;;;;;;;;;;;;;;;9.32;85.38;94890.59;5134780;27;1052;-51
2022/04/22 04:59:18;;;;;;;;;;;;;;;9.34;85.33;94859.25;5134965;27;1010;-51
2022/04/22 05:01:44;;;;;;;;;;;;;;;9.41;85.00;94851.41;5134953;27;1018;-50
2022/04/22 05:04:10;;;;;;;;;;;;;;;9.40;84.80;94858.59;5134921;27;1906;-50
2022/04/22 05:06:36;;;;;;;;;;;;;;;9.46;84.58;94849.94;5134552;27;1059;-50
2022/04/22 05:09:02;;;;;;;;;;;;;;;9.53;85.05;94842.13;5134981;27;1011;-50
2022/04/22 05:11:29;;;;;;;;;;;;;;;9.58;85.08;94832.63;5134583;27;1856;-50
2022/04/22 05:13:55;;;;;;;;;;;;;;;9.63;85.02;94837.47;5133584;27;1041;-50
2022/04/22 05:16:21;;;;;;;;;;;;;;;9.68;84.38;94826.31;5134814;27;1019;-50
2022/04/22 05:18:47;;;;;;;;;;;;;;;9.78;84.29;94824.34;5134797;27;1027;-51
2022/04/22 05:21:13;;;;;;;;;;;;;;;9.79;84.26;94826.00;5134168;27;975;-50
2022/04/22 05:23:39;;;;;;;;;;;;;;;9.80;84.52;94808.16;5134386;27;1984;-51
2022/04/22 05:26:05;;;;;;;;;;;;;;;9.79;84.53;94810.00;5134276;27;960;-51
2022/04/22 05:28:32;;;;;;;;;;;;;;;9.75;85.34;94790.81;5134345;28;1031;-51
2022/04/22 05:33:43;;;;;;;;;;;;;;;9.93;85.05;94779.97;5134650;28;1024;-50
2022/04/22 05:36:09;;;;;;;;;;;;;;;10.15;83.56;94782.97;5134107;28;1234;-50
2022/04/22 05:38:35;;;;;;;;;;;;;;;10.26;83.90;94774.63;5134203;28;1039;-49
2022/04/22 05:41:01;;;;;;;;;;;;;;;10.29;83.53;94774.28;5133031;28;1075;-50
2022/04/22 05:43:28;;;;;;;;;;;;;;;10.46;81.72;94785.00;5134425;27;1901;-50
2022/04/22 05:45:54;;;;;;;;;;;;;;;10.44;82.42;94787.00;5134436;28;1011;-50
2022/04/22 05:48:20;;;;;;;;;;;;;;;10.59;81.90;94787.16;5134608;28;1079;-50
2022/04/22 05:50:46;;;;;;;;;;;;;;;10.79;81.04;94791.09;5134208;28;983;-50
2022/04/22 05:53:12;;;;;;;;;;;;;;;10.98;80.51;94784.50;5134636;28;1012;-50
2022/04/22 05:55:38;;;;;;;;;;;;;;;11.10;79.50;94777.78;5134121;28;1993;-50
2022/04/22 05:58:04;;;;;;;;;;;;;;;11.16;79.56;94770.09;5134105;28;1063;-50
2022/04/22 06:00:31;;;;;;;;;;;;;;;11.36;79.52;94782.00;5134233;28;996;-49
2022/04/22 06:02:57;;;;;;;;;;;;;;;11.64;77.90;94785.03;5134230;28;1902;-49
2022/04/22 06:05:24;;;;;;;;;;;;;;;11.70;77.02;94787.03;5134250;28;981;-50
2022/04/22 06:10:31;;;;;;;;;;;;;;;11.74;78.24;94779.44;5134310;28;968;-49
2022/04/22 06:10:37;;;;;;;;;;;;;;;12.13;76.47;94783.91;5134064;28;1023;-49
2022/04/22 06:13:04;;;;;;;;;;;;;;;12.62;74.47;94777.28;5134185;27;1004;-49
2022/04/22 06:15:30;;;;;;;;;;;;;;;13.19;73.37;94767.78;5133943;28;1020;-50
2022/04/22 06:17:57;;;;;;;;;;;;;;;13.62;72.14;94773.25;5133903;28;1087;-51
2022/04/22 06:20:23;;;;;;;;;;;;;;;14.00;71.19;94767.69;5133738;28;1010;-51
2022/04/22 06:22:49;;;;;;;;;;;;;;;14.38;68.18;94756.66;5133802;28;1914;-50
2022/04/22 06:25:15;;;;;;;;;;;;;;;14.54;67.01;94734.84;5133851;28;1020;-50
2022/04/22 06:27:42;;;;;;;;;;;;;;;14.86;67.71;94732.63;5133996;27;980;-50
2022/04/22 06:30:10;;;;;;;;;;;;;;;15.02;66.07;94750.31;5134094;28;1031;-51
2022/04/22 06:32:36;;;;;;;;;;;;;;;15.24;65.96;94745.66;5134366;27;1020;-51
2022/04/22 06:35:03;;;;;;;;;;;;;;;15.61;66.18;94741.69;5137390;27;1237;-51
2022/04/22 06:37:32;;;;;;;;;;;;;;;15.71;65.02;94719.75;5137466;27;1302;-50
2022/04/22 06:48:33;;;;;;;;;;;;;;;15.10;64.71;94717.00;5137490;27;1076;-51
2022/04/22 06:50:59;;;;;;;;;;;;;;;14.62;67.05;94723.97;5137509;27;1019;-52
2022/04/22 06:53:26;;;;;;;;;;;;;;;14.44;67.43;94729.81;5137480;27;1039;-52
2022/04/22 06:55:53;;;;;;;;;;;;;;;14.97;68.00;94729.38;5137044;27;1044;-52
2022/04/22 06:58:20;;;;;;;;;;;;;;;16.47;62.41;94723.19;5137268;27;976;-51
2022/04/22 07:00:47;;;;;;;;;;;;;;;17.51;60.85;94729.59;5137333;27;1122;-50
2022/04/22 07:03:14;;;;;;;;;;;;;;;17.97;59.37;94708.84;5137069;27;1998;-49
2022/04/22 07:05:41;;;;;;;;;;;;;;;18.53;58.81;94711.53;5136875;27;1883;-49
2022/04/22 07:08:13;;;;;;;;;;;;;;;19.02;56.98;94694.66;5136748;27;1032;-50
2022/04/22 07:10:40;;;;;;;;;;;;;;;19.35;56.29;94685.31;5136889;27;1000;-49
2022/04/22 07:13:07;;;;;;;;;;;;;;;19.69;54.05;94679.25;5137212;27;1044;-49
2022/04/22 07:15:33;;;;;;;;;;;;;;;19.89;54.04;94697.97;5137117;27;1028;-49
2022/04/22 07:18:00;;;;;;;;;;;;;;;19.53;51.02;94703.44;5136688;27;956;-49
2022/04/22 07:20:26;;;;;;;;;;;;;;;19.12;50.99;94703.06;5136564;27;1035;-49
2022/04/22 07:22:53;;;;;;;;;;;;;;;18.43;57.72;94723.91;5136570;27;1917;-48
2022/04/22 07:25:20;;;;;;;;;;;;;;;17.99;50.97;94696.75;5136542;27;992;-48
2022/04/22 07:27:49;;;;;;;;;;;;;;;18.45;49.69;94703.69;5136842;27;968;-49
2022/04/22 07:30:16;;;;;;;;;;;;;;;19.73;48.37;94709.50;5136863;27;936;-49
2022/04/22 07:32:45;;;;;;;;;;;;;;;20.38;44.94;94699.78;5136634;27;1011;-48
2022/04/22 07:35:12;;;;;;;;;;;;;;;20.75;45.27;94703.16;5136236;27;1091;-49
2022/04/22 07:37:39;;;;;;;;;;;;;;;20.80;43.36;94700.56;5136357;27;1084;-48
2022/04/22 07:40:06;;;;;;;;;;;;;;;20.78;42.63;94697.25;5136642;27;967;-48
2022/04/22 07:42:33;;;;;;;;;;;;;;;20.78;42.65;94704.59;5136455;27;1056;-49
2022/04/22 07:47:46;;;;;;;;;;;;;;;20.83;41.74;94685.66;5136268;27;1016;-50
2022/04/22 07:50:18;;;;;;;;;;;;;;;20.93;40.75;94695.97;5136010;27;1016;-50
2022/04/22 07:52:47;;;;;;;;;;;;;;;21.01;40.84;94679.28;5136124;27;1047;-50
2022/04/22 07:55:13;;;;;;;;;;;;;;;21.39;39.67;94694.25;5136130;27;992;-50
2022/04/22 07:57:40;;;;;;;;;;;;;;;21.43;40.12;94679.09;5136097;27;1047;-50
2022/04/22 08:00:07;;;;;;;;;;;;;;;21.37;38.99;94680.06;5135934;27;1035;-50
2022/04/22 08:02:33;;;;;;;;;;;;;;;21.38;39.61;94673.53;5135914;27;1031;-50
2022/04/22 08:04:59;;;;;;;;;;;;;;;21.61;38.80;94662.66;5135675;27;1979;-49
2022/04/22 08:07:25;;;;;;;;;;;;;;;21.81;38.18;94672.28;5136030;27;1043;-49
2022/04/22 08:09:52;;;;;;;;;;;;;;;21.79;37.04;94668.97;5135809;27;1852;-53
2022/04/22 08:12:21;;;;;;;;;;;;;;;21.57;36.90;94675.09;5135747;27;1130;-50
2022/04/22 08:14:47;;;;;;;;;;;;;;;21.53;37.61;94659.47;5135670;27;1024;-49
2022/04/22 08:17:15;;;;;;;;;;;;;;;21.76;37.83;94659.41;5135894;27;1062;-51
2022/04/22 08:19:43;;;;;;;;;;;;;;;22.03;36.43;94654.19;5135459;27;1067;-51
2022/04/22 08:22:09;;;;;;;;;;;;;;;21.93;36.04;94645.00;5135483;27;1091;-50
2022/04/22 08:24:35;;;;;;;;;;;;;;;21.89;37.42;94636.50;5135713;27;1906;-51
2022/04/22 08:27:01;;;;;;;;;;;;;;;22.12;36.92;94648.31;5135561;27;1004;-51
2022/04/22 08:29:27;;;;;;;;;;;;;;;22.25;35.61;94645.31;5135391;27;1991;-50
2022/04/22 08:31:54;;;;;;;;;;;;;;;22.22;36.23;94624.03;5135374;27;1003;-50
2022/04/22 08:34:20;;;;;;;;;;;;;;;21.85;36.39;94632.59;5135315;27;1249;-51
2022/04/22 08:36:47;;;;;;;;;;;;;;;21.94;36.63;94628.44;5135541;27;998;-50
2022/04/22 08:39:14;;;;;;;;;;;;;;;22.31;35.16;94624.44;5135274;27;1086;-50
2022/04/22 08:41:43;;;;;;;;;;;;;;;22.49;35.15;94628.84;5135299;27;1035;-50
2022/04/22 08:44:13;;;;;;;;;;;;;;;22.25;35.26;94628.97;5135137;27;2008;-50
2022/04/22 08:52:10;;;;;;;;;;;;;;;22.79;34.00;94636.66;5135317;27;1003;-51
2022/04/22 08:54:38;;;;;;;;;;;;;;;22.75;33.42;94625.44;5135014;27;972;-51
2022/04/22 08:57:06;;;;;;;;;;;;;;;22.83;33.52;94628.81;5134639;27;1192;-51
2022/04/22 08:59:32;;;;;;;;;;;;;;;22.86;33.48;94614.66;5135103;27;968;-51
2022/04/22 09:01:58;;;;;;;;;;;;;;;22.90;33.22;94607.66;5135026;27;1082;-51
2022/04/22 09:04:26;;;;;;;;;;;;;;;23.09;33.03;94606.31;5134634;27;1992;-50
2022/04/22 09:06:52;;;;;;;;;;;;;;;23.23;32.79;94609.47;5134761;27;1229;-50
2022/04/22 09:09:18;;;;;;;;;;;;;;;23.22;34.02;94598.81;5134733;27;1617;-50
2022/04/22 09:11:45;;;;;;;;;;;;;;;23.20;33.36;94599.06;5135196;27;1977;-50
2022/04/22 09:14:20;;;;;;;;;;;;;;;23.17;33.22;94600.41;5134959;27;1062;-50
2022/04/22 09:16:47;;;;;;;;;;;;;;;23.18;34.69;94595.75;5135011;27;1020;-50
2022/04/22 09:19:13;;;;;;;;;;;;;;;23.54;33.12;94593.47;5134851;27;1059;-50
2022/04/22 09:21:39;;;;;;;;;;;;;;;23.33;33.17;94593.22;5134580;27;1074;-50
2022/04/22 09:24:14;;;;;;;;;;;;;;;23.36;32.92;94586.47;5134508;27;1909;-50
2022/04/22 09:26:40;;;;;;;;;;;;;;;23.63;32.57;94597.38;5134511;27;1838;-50
2022/04/22 09:29:10;;;;;;;;;;;;;;;23.44;32.42;94569.63;5134695;28;987;-50
2022/04/22 09:31:46;;;;;;;;;;;;;;;23.23;32.44;94576.75;5134396;28;1079;-48
2022/04/22 09:34:12;;;;;;;;;;;;;;;23.12;32.38;94564.88;5134481;28;968;-50
2022/04/22 09:45:06;;;;;;;;;;;;;;;23.65;32.24;94548.03;5134260;28;1906;-49
2022/04/22 09:47:33;;;;;;;;;;;;;;;23.87;32.11;94542.53;5134620;28;947;-49
2022/04/22 09:50:00;;;;;;;;;;;;;;;23.73;31.34;94539.34;5134503;28;1019;-49
2022/04/22 09:52:26;;;;;;;;;;;;;;;23.69;32.59;94530.88;5134446;28;1046;-49
2022/04/22 09:54:56;;;;;;;;;;;;;;;23.90;34.34;94531.09;5134266;28;1020;-50
2022/04/22 09:57:22;;;;;;;;;;;;;;;24.07;32.63;94536.41;5134341;27;980;-49
2022/04/22 09:59:49;;;;;;;;;;;;;;;24.07;31.29;94520.03;5134457;28;1019;-51
2022/04/22 10:02:19;;;;;;;;;;;;;;;23.99;32.18;94501.41;5134459;28;973;-49
2022/04/22 10:04:45;;;;;;;;;;;;;;;23.93;31.04;94498.63;5134184;28;1929;-50
2022/04/22 10:07:11;;;;;;;;;;;;;;;23.88;31.42;94519.59;5134330;27;952;-49
2022/04/22 10:09:39;;;;;;;;;;;;;;;23.78;31.15;94517.59;5138038;27;1097;-50
2022/04/22 10:12:08;;;;;;;;;;;;;;;23.70;30.84;94515.34;5138075;27;1040;-49
2022/04/22 10:14:37;;;;;;;;;;;;;;;23.75;31.56;94508.03;5137969;27;948;-49
2022/04/22 10:17:05;;;;;;;;;;;;;;;23.74;32.03;94522.72;5138173;27;1032;-49
2022/04/22 10:19:34;;;;;;;;;;;;;;;23.24;30.83;94498.47;5138153;27;960;-49
2022/04/22 10:22:01;;;;;;;;;;;;;;;23.05;31.37;94487.94;5137930;27;1040;-49
2022/04/22 10:24:28;;;;;;;;;;;;;;;23.22;32.96;94508.81;5137769;27;1996;-49
2022/04/22 10:26:54;;;;;;;;;;;;;;;23.55;32.43;94511.38;5137803;27;995;-49
2022/04/22 10:29:20;;;;;;;;;;;;;;;23.50;30.52;94516.75;5138069;27;986;-49
2022/04/22 10:31:47;;;;;;;;;;;;;;;23.56;31.38;94499.38;5137662;27;1023;-49
2022/04/22 10:34:13;;;;;;;;;;;;;;;23.32;31.15;94506.22;5137435;27;1087;-50
2022/04/22 10:36:40;;;;;;;;;;;;;;;23.42;32.30;94509.03;5137934;27;1039;-48
2022/04/22 10:39:06;;;;;;;;;;;;;;;23.72;33.17;94488.59;5137621;27;976;-48
2022/04/22 10:41:44;;;;;;;;;;;;;;;23.76;32.95;94490.53;5137514;27;1020;-48
2022/04/22 10:47:14;;;;;;;;;;;;;;;23.53;31.67;94469.88;5137475;27;1822;-50
2022/04/22 10:49:44;;;;;;;;;;;;;;;23.53;32.75;94488.97;5136934;27;1630;-50
2022/04/22 10:52:11;;;;;;;;;;;;;;;23.61;32.41;94476.75;5121187;27;1336;-50
2022/04/22 10:54:52;;;;;;;;;;;;;;;23.57;32.20;94483.84;5116655;28;1090;-50
2022/04/22 10:57:19;;;;;;;;;;;;;;;23.66;31.94;94471.38;5116540;28;1091;-50
2022/04/22 10:59:47;;;;;;;;;;;;;;;23.70;32.82;94485.31;5116716;28;967;-49
2022/04/22 11:02:32;;;;;;;;;;;;;;;23.47;32.42;94478.28;5116768;28;1026;-52
2022/04/22 11:05:25;;;;;;;;;;;;;;;23.29;32.10;94482.19;5116381;28;1978;-51
2022/04/22 11:07:50;;;;;;;;;;;;;;;23.04;32.63;94461.75;5108223;28;1312;-51
2022/04/22 11:10:17;;;;;;;;;;;;;;;23.01;33.11;94473.13;5116423;28;1039;-49
2022/04/22 11:12:49;;;;;;;;;;;;;;;23.16;32.41;94475.22;5116582;28;952;-51
2022/04/22 11:15:35;;;;;;;;;;;;;;;23.11;32.92;94475.19;5116226;28;1020;-49
2022/04/22 11:18:02;;;;;;;;;;;;;;;23.07;32.65;94474.88;5115955;28;1442;-50
2022/04/22 11:20:28;;;;;;;;;;;;;;;23.00;33.31;94463.31;5115701;28;969;-50
2022/04/22 11:22:58;;;;;;;;;;;;;;;23.00;33.05;94453.22;5116119;28;1988;-50
2022/04/22 11:25:24;;;;;;;;;;;;;;;22.71;33.50;94447.19;5116073;28;1094;-51
2022/04/22 11:27:53;;;;;;;;;;;;;;;22.50;33.99;94439.81;5116045;28;1012;-55
2022/04/22 11:30:19;;;;;;;;;;;;;;;22.33;34.47;94459.75;5116195;28;976;-51
2022/04/22 11:32:48;;;;;;;;;;;;;;;22.39;34.52;94447.84;5116022;28;953;-51
2022/04/22 11:35:18;;;;;;;;;;;;;;;22.54;33.87;94457.31;5115843;28;1186;-51
2022/04/22 11:37:44;;;;;;;;;;;;;;;22.35;33.61;94456.78;5116245;27;987;-51
2022/04/22 11:40:17;;;;;;;;;;;;;;;22.25;33.88;94452.00;5116011;28;984;-51
2022/04/22 11:42:43;;;;;;;;;;;;;;;22.41;33.79;94453.88;5116077;28;1031;-51
2022/04/22 11:45:14;;;;;;;;;;;;;;;22.47;34.31;94443.06;5115875;28;1981;-52
2022/04/22 11:47:43;;;;;;;;;;;;;;;22.68;34.29;94466.75;5115576;28;1024;-52
2022/04/22 11:50:16;;;;;;;;;;;;;;;22.65;33.88;94463.69;5115857;28;1022;-51
2022/04/22 11:52:42;;;;;;;;;;;;;;;22.61;34.10;94447.03;5115477;28;1060;-50
2022/04/22 11:55:08;;;;;;;;;;;;;;;22.56;34.62;94438.81;5115805;28;1032;-51
2022/04/22 11:57:38;;;;;;;;;;;;;;;22.64;34.21;94451.97;5115764;28;964;-51
2022/04/22 12:05:37;;;;;;;;;;;;;;;22.56;34.25;94417.03;5115578;28;1083;-51
2022/04/22 12:08:07;;;;;;;;;;;;;;;22.42;34.29;94432.91;5115169;28;1095;-51
2022/04/22 12:10:34;;;;;;;;;;;;;;;22.63;35.27;94433.16;5115492;28;993;-51
2022/04/22 12:13:01;;;;;;;;;;;;;;;22.66;33.37;94411.69;5115145;28;2034;-51
2022/04/22 12:15:27;;;;;;;;;;;;;;;22.71;34.87;94411.75;5115052;28;1024;-51
2022/04/22 12:17:53;;;;;;;;;;;;;;;22.91;33.58;94404.88;5115268;28;973;-51
2022/04/22 12:20:19;;;;;;;;;;;;;;;22.82;34.50;94420.84;5114937;28;1028;-51
2022/04/22 12:22:49;;;;;;;;;;;;;;;22.79;34.88;94422.19;5114932;28;1873;-49
2022/04/22 12:25:16;;;;;;;;;;;;;;;22.67;34.23;94413.34;5114987;28;1905;-51
2022/04/22 12:27:42;;;;;;;;;;;;;;;22.59;34.43;94413.78;5114953;28;1012;-51
2022/04/22 12:30:10;;;;;;;;;;;;;;;22.69;34.35;94404.91;5113145;28;1694;-51
2022/04/22 12:32:37;;;;;;;;;;;;;;;22.68;34.68;94401.34;5114792;28;1025;-52
2022/04/22 12:38:25;;;;;;;;;;;;;;;22.46;35.08;94378.75;4599776;28;2238;-51
2022/04/22 12:40:51;;;;;;;;;;;;;;;22.57;35.80;94383.25;5114520;28;1102;-52
2022/04/22 12:43:23;;;;;;;;;;;;;;;22.58;34.34;94376.72;5114726;28;1988;-52
2022/04/22 12:54:11;;;;;;;;;;;;;;;22.22;34.36;94370.81;5114571;28;965;-52
2022/04/22 12:56:37;;;;;;;;;;;;;;;22.36;34.55;94380.28;5114471;28;953;-52
2022/04/22 12:59:04;;;;;;;;;;;;;;;22.37;34.11;94362.06;5114574;28;1070;-54
2022/04/22 13:01:34;;;;;;;;;;;;;;;22.19;35.26;94371.31;5114360;28;1043;-51
2022/04/22 13:04:00;;;;;;;;;;;;;;;22.36;34.24;94365.84;5114093;28;1944;-51
2022/04/22 13:06:38;;;;;;;;;;;;;;;22.54;34.43;94370.16;5114785;28;1027;-52
2022/04/22 13:09:05;;;;;;;;;;;;;;;22.41;34.13;94355.81;5114088;28;1044;-52
2022/04/22 13:11:31;;;;;;;;;;;;;;;22.35;34.72;94359.56;5114221;28;1051;-52
2022/04/22 13:14:00;;;;;;;;;;;;;;;22.25;34.87;94345.81;5114090;28;1085;-52
2022/04/22 13:16:26;;;;;;;;;;;;;;;22.29;36.01;94333.38;5113874;28;1036;-52
2022/04/22 13:18:52;;;;;;;;;;;;;;;22.52;35.64;94339.59;5114293;28;1011;-52
2022/04/22 13:21:19;;;;;;;;;;;;;;;22.69;34.28;94339.50;5114195;28;1012;-52
2022/04/22 13:23:45;;;;;;;;;;;;;;;22.79;34.51;94332.28;5114027;28;1949;-52
2022/04/22 13:26:11;;;;;;;;;;;;;;;22.79;34.91;94326.81;5112685;28;1417;-52
2022/04/22 13:28:37;;;;;;;;;;;;;;;22.69;34.31;94336.78;5114308;28;1053;-52
2022/04/22 13:31:03;;;;;;;;;;;;;;;22.48;34.51;94331.13;5113746;28;1986;-52
2022/04/22 13:33:33;;;;;;;;;;;;;;;22.46;34.67;94337.91;5113862;28;1091;-52
2022/04/22 13:36:07;;;;;;;;;;;;;;;22.40;34.68;94335.13;5114034;28;971;-52
2022/04/22 13:38:34;;;;;;;;;;;;;;;22.29;34.06;94348.88;5113814;28;1345;-52
2022/04/22 13:41:04;;;;;;;;;;;;;;;22.25;34.40;94325.91;5113776;28;1044;-52
2022/04/22 13:43:33;;;;;;;;;;;;;;;22.36;34.05;94317.63;5117677;28;1997;-51
2022/04/22 13:54:14;;;;;;;;;;;;;;;22.32;32.22;94294.72;5118164;28;976;-51
2022/04/22 13:56:40;;;;;;;;;;;;;;;22.37;32.41;94300.25;5117836;28;1830;-52
2022/04/22 13:59:06;;;;;;;;;;;;;;;22.30;32.31;94293.34;5118031;28;1071;-49
2022/04/22 14:01:32;;;;;;;;;;;;;;;22.25;32.71;94315.03;5117869;28;1019;-51
2022/04/22 14:03:58;;;;;;;;;;;;;;;22.31;32.42;94312.16;5117886;28;1987;-51
2022/04/22 14:06:24;;;;;;;;;;;;;;;22.30;32.72;94317.84;5117581;28;1040;-50
2022/04/22 14:08:50;;;;;;;;;;;;;;;22.26;32.89;94305.81;5117821;28;1003;-50
2022/04/22 14:11:16;;;;;;;;;;;;;;;22.27;32.91;94305.56;5117797;28;969;-51
2022/04/22 14:13:43;;;;;;;;;;;;;;;22.31;32.95;94308.59;5121444;27;1147;-54
2022/04/22 14:16:09;;;;;;;;;;;;;;;22.31;33.38;94314.88;5137848;27;1196;-51
2022/04/22 14:18:36;;;;;;;;;;;;;;;22.23;33.26;94313.41;5138472;27;1051;-52
2022/04/22 14:21:02;;;;;;;;;;;;;;;22.11;34.09;94317.31;5137701;27;1087;-54
2022/04/22 14:23:30;;;;;;;;;;;;;;;22.20;34.46;94313.09;5137376;27;1901;-53
2022/04/22 14:25:56;;;;;;;;;;;;;;;22.21;34.75;94299.22;5136211;27;1103;-52
2022/04/22 14:28:23;;;;;;;;;;;;;;;22.23;33.65;94323.44;5137826;27;1026;-51